sensor_id;sensor_type;location;lat;lon;timestamp;pressure;altitude;pressure_sealevel;temperature;humidity
61035;BME280;46916;40.564;-7.958;2023-05-11T00:00:10;97738.25;;;17.06;54.47
61035;BME280;46916;40.564;-7.958;2023-05-11T00:02:11;97737.81;;;17.11;54.59
61035;BME280;46916;40.564;-7.958;2023-05-11T00:04:12;97731.84;;;17.08;54.51
61035;BME280;46916;40.564;-7.958;2023-05-11T00:06:13;97728.34;;;17.08;54.59
61035;BME280;46916;40.564;-7.958;2023-05-11T00:08:13;97736.13;;;17.09;54.66
61035;BME280;46916;40.564;-7.958;2023-05-11T00:10:15;97736.47;;;17.06;54.63
61035;BME280;46916;40.564;-7.958;2023-05-11T00:12:16;97732.81;;;16.99;54.65
61035;BME280;46916;40.564;-7.958;2023-05-11T00:14:17;97734.78;;;16.97;54.89
61035;BME280;46916;40.564;-7.958;2023-05-11T00:16:17;97737.09;;;16.92;55.17
61035;BME280;46916;40.564;-7.958;2023-05-11T00:18:18;97740.22;;;16.88;55.09
61035;BME280;46916;40.564;-7.958;2023-05-11T00:20:19;97733.13;;;16.88;55.19
61035;BME280;46916;40.564;-7.958;2023-05-11T00:22:21;97733.81;;;16.90;55.05
61035;BME280;46916;40.564;-7.958;2023-05-11T00:24:21;97729.81;;;16.86;55.13
61035;BME280;46916;40.564;-7.958;2023-05-11T00:26:22;97731.78;;;16.84;55.13
61035;BME280;46916;40.564;-7.958;2023-05-11T00:28:23;97736.56;;;16.80;55.37
61035;BME280;46916;40.564;-7.958;2023-05-11T00:30:24;97737.25;;;16.82;55.15
61035;BME280;46916;40.564;-7.958;2023-05-11T00:32:25;97735.25;;;16.84;55.20
61035;BME280;46916;40.564;-7.958;2023-05-11T00:34:25;97735.94;;;16.87;55.04
61035;BME280;46916;40.564;-7.958;2023-05-11T00:36:27;97735.13;;;16.86;55.15
61035;BME280;46916;40.564;-7.958;2023-05-11T00:38:28;97730.44;;;16.80;55.20
61035;BME280;46916;40.564;-7.958;2023-05-11T00:40:31;97725.97;;;16.80;54.87
61035;BME280;46916;40.564;-7.958;2023-05-11T00:42:32;97729.63;;;16.79;55.20
61035;BME280;46916;40.564;-7.958;2023-05-11T00:44:33;97729.44;;;16.73;54.90
61035;BME280;46916;40.564;-7.958;2023-05-11T00:46:34;97724.47;;;16.70;54.93
61035;BME280;46916;40.564;-7.958;2023-05-11T00:48:36;97720.53;;;16.74;55.07
61035;BME280;46916;40.564;-7.958;2023-05-11T00:50:37;97730.44;;;16.80;54.80
61035;BME280;46916;40.564;-7.958;2023-05-11T00:52:38;97725.66;;;16.83;54.60
61035;BME280;46916;40.564;-7.958;2023-05-11T00:54:39;97729.97;;;16.84;54.46
61035;BME280;46916;40.564;-7.958;2023-05-11T00:56:41;97738.72;;;16.85;54.53
61035;BME280;46916;40.564;-7.958;2023-05-11T00:58:41;97739.41;;;16.87;54.53
61035;BME280;46916;40.564;-7.958;2023-05-11T01:00:42;97741.06;;;16.88;54.63
61035;BME280;46916;40.564;-7.958;2023-05-11T01:02:44;97743.19;;;16.84;54.80
61035;BME280;46916;40.564;-7.958;2023-05-11T01:04:45;97744.00;;;16.85;54.62
61035;BME280;46916;40.564;-7.958;2023-05-11T01:07:16;97742.06;;;16.87;54.58
61035;BME280;46916;40.564;-7.958;2023-05-11T01:11:57;97738.72;;;16.85;54.85
61035;BME280;46916;40.564;-7.958;2023-05-11T01:14:05;97738.91;;;16.83;54.63
61035;BME280;46916;40.564;-7.958;2023-05-11T01:16:20;97740.22;;;16.79;54.94
61035;BME280;46916;40.564;-7.958;2023-05-11T01:18:35;97748.78;;;16.73;55.03
61035;BME280;46916;40.564;-7.958;2023-05-11T01:20:45;97745.22;;;16.56;55.51
61035;BME280;46916;40.564;-7.958;2023-05-11T01:32:04;97731.38;;;16.28;55.87
61035;BME280;46916;40.564;-7.958;2023-05-11T01:34:16;97726.94;;;16.29;55.90
61035;BME280;46916;40.564;-7.958;2023-05-11T01:36:19;97728.91;;;16.27;55.77
61035;BME280;46916;40.564;-7.958;2023-05-11T01:38:24;97726.09;;;16.28;55.63
61035;BME280;46916;40.564;-7.958;2023-05-11T01:40:30;97725.78;;;16.31;55.62
61035;BME280;46916;40.564;-7.958;2023-05-11T01:42:41;97734.06;;;16.37;55.39
61035;BME280;46916;40.564;-7.958;2023-05-11T01:44:48;97734.91;;;16.37;55.03
61035;BME280;46916;40.564;-7.958;2023-05-11T01:46:51;97732.75;;;16.41;54.78
61035;BME280;46916;40.564;-7.958;2023-05-11T01:48:55;97726.50;;;16.42;54.65
61035;BME280;46916;40.564;-7.958;2023-05-11T01:51:00;97720.41;;;16.41;54.39
61035;BME280;46916;40.564;-7.958;2023-05-11T01:53:03;97720.88;;;16.45;54.09
61035;BME280;46916;40.564;-7.958;2023-05-11T01:55:05;97719.22;;;16.44;54.06
61035;BME280;46916;40.564;-7.958;2023-05-11T01:57:08;97722.66;;;16.36;54.12
61035;BME280;46916;40.564;-7.958;2023-05-11T01:59:13;97721.03;;;16.35;53.84
61035;BME280;46916;40.564;-7.958;2023-05-11T02:01:16;97712.59;;;16.40;53.81
61035;BME280;46916;40.564;-7.958;2023-05-11T02:03:18;97708.16;;;16.40;53.63
61035;BME280;46916;40.564;-7.958;2023-05-11T02:05:21;97705.84;;;16.37;53.97
61035;BME280;46916;40.564;-7.958;2023-05-11T02:07:23;97708.44;;;16.29;54.12
61035;BME280;46916;40.564;-7.958;2023-05-11T02:09:28;97713.53;;;16.22;54.54
61035;BME280;46916;40.564;-7.958;2023-05-11T02:11:31;97719.28;;;16.18;54.47
61035;BME280;46916;40.564;-7.958;2023-05-11T02:13:34;97720.06;;;16.10;54.75
61035;BME280;46916;40.564;-7.958;2023-05-11T02:15:39;97722.03;;;16.08;54.56
61035;BME280;46916;40.564;-7.958;2023-05-11T02:17:41;97718.75;;;16.06;54.79
61035;BME280;46916;40.564;-7.958;2023-05-11T02:19:43;97718.25;;;16.10;54.44
61035;BME280;46916;40.564;-7.958;2023-05-11T02:21:45;97714.63;;;16.12;54.27
61035;BME280;46916;40.564;-7.958;2023-05-11T02:23:48;97718.25;;;16.10;53.97
61035;BME280;46916;40.564;-7.958;2023-05-11T02:25:53;97711.81;;;16.05;54.04
61035;BME280;46916;40.564;-7.958;2023-05-11T02:27:55;97713.63;;;16.04;53.80
61035;BME280;46916;40.564;-7.958;2023-05-11T02:29:55;97719.22;;;16.01;53.57
61035;BME280;46916;40.564;-7.958;2023-05-11T02:32:11;97718.16;;;15.94;53.47
61035;BME280;46916;40.564;-7.958;2023-05-11T02:34:27;97710.16;;;15.78;53.53
61035;BME280;46916;40.564;-7.958;2023-05-11T02:36:31;97711.53;;;15.64;53.61
61035;BME280;46916;40.564;-7.958;2023-05-11T02:38:34;97717.06;;;15.53;53.90
61035;BME280;46916;40.564;-7.958;2023-05-11T02:40:46;97714.81;;;15.40;53.94
61035;BME280;46916;40.564;-7.958;2023-05-11T02:42:54;97716.56;;;15.31;54.39
61035;BME280;46916;40.564;-7.958;2023-05-11T02:44:59;97713.41;;;15.28;54.36
61035;BME280;46916;40.564;-7.958;2023-05-11T02:47:03;97705.47;;;15.28;54.22
61035;BME280;46916;40.564;-7.958;2023-05-11T02:49:09;97708.25;;;15.26;54.21
61035;BME280;46916;40.564;-7.958;2023-05-11T02:51:13;97701.25;;;15.35;54.05
61035;BME280;46916;40.564;-7.958;2023-05-11T02:53:23;97698.00;;;15.41;53.48
61035;BME280;46916;40.564;-7.958;2023-05-11T02:55:26;97692.72;;;15.41;53.22
61035;BME280;46916;40.564;-7.958;2023-05-11T02:57:28;97697.31;;;15.39;52.46
61035;BME280;46916;40.564;-7.958;2023-05-11T02:59:33;97684.38;;;15.28;52.51
61035;BME280;46916;40.564;-7.958;2023-05-11T03:01:34;97685.66;;;15.24;52.61
61035;BME280;46916;40.564;-7.958;2023-05-11T03:03:35;97687.47;;;15.23;52.85
61035;BME280;46916;40.564;-7.958;2023-05-11T03:05:36;97685.66;;;15.24;52.92
61035;BME280;46916;40.564;-7.958;2023-05-11T03:07:37;97683.84;;;15.24;53.00
61035;BME280;46916;40.564;-7.958;2023-05-11T03:09:38;97692.13;;;15.29;52.91
61035;BME280;46916;40.564;-7.958;2023-05-11T03:11:39;97688.66;;;15.29;52.59
61035;BME280;46916;40.564;-7.958;2023-05-11T03:13:42;97690.94;;;15.24;52.78
61035;BME280;46916;40.564;-7.958;2023-05-11T03:15:44;97698.69;;;15.25;52.77
61035;BME280;46916;40.564;-7.958;2023-05-11T03:17:45;97706.75;;;15.24;52.65
61035;BME280;46916;40.564;-7.958;2023-05-11T03:19:48;97709.59;;;15.30;52.37
61035;BME280;46916;40.564;-7.958;2023-05-11T03:21:51;97704.44;;;15.21;52.31
61035;BME280;46916;40.564;-7.958;2023-05-11T03:23:53;97689.34;;;15.13;52.56
61035;BME280;46916;40.564;-7.958;2023-05-11T03:25:54;97691.31;;;15.11;52.29
61035;BME280;46916;40.564;-7.958;2023-05-11T03:27:56;97690.50;;;15.10;52.24
61035;BME280;46916;40.564;-7.958;2023-05-11T03:29:59;97700.06;;;15.11;52.31
61035;BME280;46916;40.564;-7.958;2023-05-11T03:32:01;97696.16;;;15.16;51.81
61035;BME280;46916;40.564;-7.958;2023-05-11T03:34:05;97694.16;;;15.18;51.45
61035;BME280;46916;40.564;-7.958;2023-05-11T03:36:11;97688.00;;;15.09;51.58
61035;BME280;46916;40.564;-7.958;2023-05-11T03:38:14;97683.19;;;15.04;51.78
61035;BME280;46916;40.564;-7.958;2023-05-11T03:40:16;97677.59;;;14.90;52.02
61035;BME280;46916;40.564;-7.958;2023-05-11T03:42:26;97668.41;;;14.76;52.36
61035;BME280;46916;40.564;-7.958;2023-05-11T03:44:30;97676.47;;;14.74;52.15
61035;BME280;46916;40.564;-7.958;2023-05-11T03:46:34;97673.59;;;14.68;52.17
61035;BME280;46916;40.564;-7.958;2023-05-11T03:48:39;97674.31;;;14.70;52.15
61035;BME280;46916;40.564;-7.958;2023-05-11T03:50:41;97673.41;;;14.79;51.83
61035;BME280;46916;40.564;-7.958;2023-05-11T03:52:43;97673.22;;;14.80;51.76
61035;BME280;46916;40.564;-7.958;2023-05-11T03:54:44;97668.66;;;14.82;51.58
61035;BME280;46916;40.564;-7.958;2023-05-11T03:56:45;97671.81;;;14.86;51.35
61035;BME280;46916;40.564;-7.958;2023-05-11T03:58:46;97676.25;;;14.85;51.38
61035;BME280;46916;40.564;-7.958;2023-05-11T04:00:46;97681.38;;;14.87;51.26
61035;BME280;46916;40.564;-7.958;2023-05-11T04:02:48;97674.81;;;14.91;50.96
61035;BME280;46916;40.564;-7.958;2023-05-11T04:04:49;97677.16;;;14.94;50.97
61035;BME280;46916;40.564;-7.958;2023-05-11T04:06:52;97665.47;;;14.97;50.73
61035;BME280;46916;40.564;-7.958;2023-05-11T04:08:55;97667.97;;;14.98;50.65
61035;BME280;46916;40.564;-7.958;2023-05-11T04:10:56;97672.09;;;15.01;50.38
61035;BME280;46916;40.564;-7.958;2023-05-11T04:12:56;97664.34;;;14.99;50.40
61035;BME280;46916;40.564;-7.958;2023-05-11T04:14:57;97669.81;;;15.06;50.36
61035;BME280;46916;40.564;-7.958;2023-05-11T04:16:57;97673.81;;;15.10;50.08
61035;BME280;46916;40.564;-7.958;2023-05-11T04:19:01;97665.78;;;15.11;49.97
61035;BME280;46916;40.564;-7.958;2023-05-11T04:21:01;97660.13;;;15.06;50.07
61035;BME280;46916;40.564;-7.958;2023-05-11T04:23:02;97665.91;;;15.10;49.93
61035;BME280;46916;40.564;-7.958;2023-05-11T04:25:04;97668.78;;;15.17;49.82
61035;BME280;46916;40.564;-7.958;2023-05-11T04:27:05;97665.16;;;15.18;49.56
61035;BME280;46916;40.564;-7.958;2023-05-11T04:29:06;97672.59;;;15.22;49.33
61035;BME280;46916;40.564;-7.958;2023-05-11T04:31:07;97667.19;;;15.24;49.31
61035;BME280;46916;40.564;-7.958;2023-05-11T04:33:07;97662.03;;;15.22;49.15
61035;BME280;46916;40.564;-7.958;2023-05-11T04:35:08;97661.91;;;15.24;49.01
61035;BME280;46916;40.564;-7.958;2023-05-11T04:37:11;97665.53;;;15.23;48.96
61035;BME280;46916;40.564;-7.958;2023-05-11T04:39:13;97666.38;;;15.23;49.43
61035;BME280;46916;40.564;-7.958;2023-05-11T04:41:14;97670.66;;;15.24;48.94
61035;BME280;46916;40.564;-7.958;2023-05-11T04:43:15;97673.13;;;15.26;48.77
61035;BME280;46916;40.564;-7.958;2023-05-11T04:45:16;97662.03;;;15.22;48.87
61035;BME280;46916;40.564;-7.958;2023-05-11T04:47:17;97667.31;;;15.22;48.87
61035;BME280;46916;40.564;-7.958;2023-05-11T04:49:20;97669.13;;;15.22;48.69
61035;BME280;46916;40.564;-7.958;2023-05-11T04:51:21;97674.88;;;15.17;48.86
61035;BME280;46916;40.564;-7.958;2023-05-11T04:53:22;97667.25;;;15.14;49.14
61035;BME280;46916;40.564;-7.958;2023-05-11T04:55:23;97672.84;;;15.11;49.03
61035;BME280;46916;40.564;-7.958;2023-05-11T04:57:26;97669.00;;;15.05;49.13
61035;BME280;46916;40.564;-7.958;2023-05-11T04:59:27;97668.28;;;14.95;49.31
61035;BME280;46916;40.564;-7.958;2023-05-11T05:01:28;97662.22;;;14.85;49.49
61035;BME280;46916;40.564;-7.958;2023-05-11T05:03:29;97666.69;;;14.84;49.29
61035;BME280;46916;40.564;-7.958;2023-05-11T05:05:30;97666.91;;;14.73;49.84
61035;BME280;46916;40.564;-7.958;2023-05-11T05:07:31;97665.41;;;14.71;49.90
61035;BME280;46916;40.564;-7.958;2023-05-11T05:09:31;97664.72;;;14.69;49.97
61035;BME280;46916;40.564;-7.958;2023-05-11T05:11:32;97667.66;;;14.66;50.08
61035;BME280;46916;40.564;-7.958;2023-05-11T05:13:33;97670.97;;;14.68;50.08
61035;BME280;46916;40.564;-7.958;2023-05-11T05:15:33;97665.13;;;14.74;49.92
61035;BME280;46916;40.564;-7.958;2023-05-11T05:17:34;97675.88;;;14.80;49.74
61035;BME280;46916;40.564;-7.958;2023-05-11T05:19:35;97665.84;;;14.84;49.77
61035;BME280;46916;40.564;-7.958;2023-05-11T05:21:36;97677.47;;;14.91;49.68
61035;BME280;46916;40.564;-7.958;2023-05-11T05:23:37;97677.31;;;14.93;49.54
61035;BME280;46916;40.564;-7.958;2023-05-11T05:25:38;97675.94;;;14.89;49.74
61035;BME280;46916;40.564;-7.958;2023-05-11T05:27:40;97684.69;;;14.89;49.62
61035;BME280;46916;40.564;-7.958;2023-05-11T05:29:44;97687.47;;;14.88;49.54
61035;BME280;46916;40.564;-7.958;2023-05-11T05:31:45;97692.75;;;14.88;49.67
61035;BME280;46916;40.564;-7.958;2023-05-11T05:33:46;97693.34;;;14.81;49.58
61035;BME280;46916;40.564;-7.958;2023-05-11T05:35:47;97696.59;;;14.75;49.79
61035;BME280;46916;40.564;-7.958;2023-05-11T05:37:49;97697.88;;;14.71;49.95
61035;BME280;46916;40.564;-7.958;2023-05-11T05:39:50;97704.13;;;14.70;50.05
61035;BME280;46916;40.564;-7.958;2023-05-11T05:41:51;97710.34;;;14.69;49.94
61035;BME280;46916;40.564;-7.958;2023-05-11T05:43:52;97713.16;;;14.68;50.08
61035;BME280;46916;40.564;-7.958;2023-05-11T05:45:53;97714.66;;;14.70;50.16
61035;BME280;46916;40.564;-7.958;2023-05-11T05:47:53;97710.88;;;14.73;50.12
61035;BME280;46916;40.564;-7.958;2023-05-11T05:49:55;97714.34;;;14.73;50.19
61035;BME280;46916;40.564;-7.958;2023-05-11T05:51:56;97715.56;;;14.79;50.07
61035;BME280;46916;40.564;-7.958;2023-05-11T05:53:57;97718.88;;;14.81;50.00
61035;BME280;46916;40.564;-7.958;2023-05-11T05:55:58;97723.88;;;14.84;49.94
61035;BME280;46916;40.564;-7.958;2023-05-11T05:57:59;97720.47;;;14.92;49.92
61035;BME280;46916;40.564;-7.958;2023-05-11T06:00:00;97717.69;;;14.93;50.01
61035;BME280;46916;40.564;-7.958;2023-05-11T06:02:01;97712.66;;;15.00;49.77
61035;BME280;46916;40.564;-7.958;2023-05-11T06:04:03;97714.00;;;15.04;49.66
61035;BME280;46916;40.564;-7.958;2023-05-11T06:06:06;97713.72;;;15.07;49.81
61035;BME280;46916;40.564;-7.958;2023-05-11T06:08:06;97721.47;;;15.08;49.80
61035;BME280;46916;40.564;-7.958;2023-05-11T06:10:07;97722.75;;;15.04;49.84
61035;BME280;46916;40.564;-7.958;2023-05-11T06:12:08;97722.97;;;15.11;49.81
61035;BME280;46916;40.564;-7.958;2023-05-11T06:14:13;97726.00;;;14.98;49.85
61035;BME280;46916;40.564;-7.958;2023-05-11T06:16:15;97725.38;;;14.86;49.97
61035;BME280;46916;40.564;-7.958;2023-05-11T06:18:16;97733.50;;;14.75;50.39
61035;BME280;46916;40.564;-7.958;2023-05-11T06:20:18;97721.50;;;14.63;50.66
61035;BME280;46916;40.564;-7.958;2023-05-11T06:22:19;97722.25;;;14.55;50.93
61035;BME280;46916;40.564;-7.958;2023-05-11T06:24:21;97726.84;;;14.53;51.33
61035;BME280;46916;40.564;-7.958;2023-05-11T06:26:22;97731.00;;;14.46;51.31
61035;BME280;46916;40.564;-7.958;2023-05-11T06:28:25;97726.56;;;14.47;51.57
61035;BME280;46916;40.564;-7.958;2023-05-11T06:30:31;97732.13;;;14.44;51.73
61035;BME280;46916;40.564;-7.958;2023-05-11T06:32:33;97732.94;;;14.44;51.68
61035;BME280;46916;40.564;-7.958;2023-05-11T06:34:34;97741.38;;;14.48;51.62
61035;BME280;46916;40.564;-7.958;2023-05-11T06:36:35;97743.41;;;14.64;51.50
61035;BME280;46916;40.564;-7.958;2023-05-11T06:38:36;97739.34;;;14.69;51.62
61035;BME280;46916;40.564;-7.958;2023-05-11T06:40:37;97741.41;;;14.75;51.51
61035;BME280;46916;40.564;-7.958;2023-05-11T06:42:37;97750.22;;;14.84;51.40
61035;BME280;46916;40.564;-7.958;2023-05-11T06:44:41;97742.63;;;14.81;51.38
61035;BME280;46916;40.564;-7.958;2023-05-11T06:46:44;97742.56;;;14.91;51.17
61035;BME280;46916;40.564;-7.958;2023-05-11T06:48:44;97749.34;;;14.93;51.38
61035;BME280;46916;40.564;-7.958;2023-05-11T06:50:45;97741.13;;;14.96;50.99
61035;BME280;46916;40.564;-7.958;2023-05-11T06:52:46;97742.78;;;14.97;51.26
61035;BME280;46916;40.564;-7.958;2023-05-11T06:54:47;97743.59;;;14.98;50.74
61035;BME280;46916;40.564;-7.958;2023-05-11T06:56:47;97743.09;;;14.94;50.82
61035;BME280;46916;40.564;-7.958;2023-05-11T06:58:48;97743.09;;;14.94;51.14
61035;BME280;46916;40.564;-7.958;2023-05-11T07:00:49;97742.31;;;15.02;50.80
61035;BME280;46916;40.564;-7.958;2023-05-11T07:02:49;97736.47;;;15.08;50.73
61035;BME280;46916;40.564;-7.958;2023-05-11T07:04:50;97741.22;;;15.04;50.86
61035;BME280;46916;40.564;-7.958;2023-05-11T07:06:51;97743.63;;;15.16;50.54
61035;BME280;46916;40.564;-7.958;2023-05-11T07:08:52;97748.09;;;15.15;50.48
61035;BME280;46916;40.564;-7.958;2023-05-11T07:10:53;97743.91;;;15.13;50.29
61035;BME280;46916;40.564;-7.958;2023-05-11T07:12:53;97740.38;;;15.22;50.50
61035;BME280;46916;40.564;-7.958;2023-05-11T07:14:54;97743.91;;;15.30;50.10
61035;BME280;46916;40.564;-7.958;2023-05-11T07:16:55;97744.38;;;15.26;50.26
61035;BME280;46916;40.564;-7.958;2023-05-11T07:18:55;97742.41;;;15.28;50.17
61035;BME280;46916;40.564;-7.958;2023-05-11T07:20:56;97745.88;;;15.28;50.54
61035;BME280;46916;40.564;-7.958;2023-05-11T07:22:57;97736.63;;;15.24;50.86
61035;BME280;46916;40.564;-7.958;2023-05-11T07:25:01;97737.44;;;15.25;50.15
61035;BME280;46916;40.564;-7.958;2023-05-11T07:27:02;97734.97;;;15.23;50.30
61035;BME280;46916;40.564;-7.958;2023-05-11T07:29:03;97734.28;;;15.39;50.17
61035;BME280;46916;40.564;-7.958;2023-05-11T07:31:04;97740.78;;;15.27;51.40
61035;BME280;46916;40.564;-7.958;2023-05-11T07:33:09;97740.22;;;15.41;51.03
61035;BME280;46916;40.564;-7.958;2023-05-11T07:35:10;97729.81;;;15.40;51.85
61035;BME280;46916;40.564;-7.958;2023-05-11T07:37:11;97741.94;;;15.50;50.03
61035;BME280;46916;40.564;-7.958;2023-05-11T07:39:13;97742.03;;;15.41;50.58
61035;BME280;46916;40.564;-7.958;2023-05-11T07:41:16;97735.56;;;15.35;51.58
61035;BME280;46916;40.564;-7.958;2023-05-11T07:43:18;97738.75;;;15.47;51.18
61035;BME280;46916;40.564;-7.958;2023-05-11T07:45:19;97738.81;;;15.55;50.89
61035;BME280;46916;40.564;-7.958;2023-05-11T07:47:19;97741.25;;;15.66;51.84
61035;BME280;46916;40.564;-7.958;2023-05-11T07:49:20;97729.31;;;15.80;48.21
61035;BME280;46916;40.564;-7.958;2023-05-11T07:51:21;97736.25;;;15.81;46.93
61035;BME280;46916;40.564;-7.958;2023-05-11T07:53:22;97735.84;;;15.68;47.26
61035;BME280;46916;40.564;-7.958;2023-05-11T07:55:22;97743.06;;;15.66;47.52
61035;BME280;46916;40.564;-7.958;2023-05-11T07:57:24;97741.63;;;15.53;47.56
61035;BME280;46916;40.564;-7.958;2023-05-11T07:59:25;97746.25;;;15.51;47.88
61035;BME280;46916;40.564;-7.958;2023-05-11T08:01:26;97745.84;;;15.46;47.92
61035;BME280;46916;40.564;-7.958;2023-05-11T08:03:26;97746.19;;;15.43;48.27
61035;BME280;46916;40.564;-7.958;2023-05-11T08:05:29;97742.69;;;15.43;48.13
61035;BME280;46916;40.564;-7.958;2023-05-11T08:07:30;97749.78;;;15.42;48.45
61035;BME280;46916;40.564;-7.958;2023-05-11T08:09:30;97741.47;;;15.55;48.10
61035;BME280;46916;40.564;-7.958;2023-05-11T08:11:31;97746.44;;;15.58;47.90
61035;BME280;46916;40.564;-7.958;2023-05-11T08:13:32;97748.19;;;15.67;46.83
61035;BME280;46916;40.564;-7.958;2023-05-11T08:15:33;97744.06;;;15.65;46.92
61035;BME280;46916;40.564;-7.958;2023-05-11T08:17:34;97753.47;;;15.67;46.78
61035;BME280;46916;40.564;-7.958;2023-05-11T08:19:35;97750.06;;;15.75;46.78
61035;BME280;46916;40.564;-7.958;2023-05-11T08:21:36;97756.97;;;15.68;47.30
61035;BME280;46916;40.564;-7.958;2023-05-11T08:23:37;97748.88;;;15.69;46.96
61035;BME280;46916;40.564;-7.958;2023-05-11T08:25:37;97756.63;;;15.71;46.52
61035;BME280;46916;40.564;-7.958;2023-05-11T08:27:38;97751.69;;;15.68;47.04
61035;BME280;46916;40.564;-7.958;2023-05-11T08:29:39;97751.06;;;15.74;46.58
61035;BME280;46916;40.564;-7.958;2023-05-11T08:31:40;97745.66;;;15.83;47.14
61035;BME280;46916;40.564;-7.958;2023-05-11T08:33:40;97737.34;;;15.96;46.08
61035;BME280;46916;40.564;-7.958;2023-05-11T08:35:41;97744.63;;;16.02;45.62
61035;BME280;46916;40.564;-7.958;2023-05-11T08:37:42;97749.25;;;16.00;45.79
61035;BME280;46916;40.564;-7.958;2023-05-11T08:39:43;97740.66;;;15.98;45.78
61035;BME280;46916;40.564;-7.958;2023-05-11T08:41:45;97751.16;;;15.90;46.27
61035;BME280;46916;40.564;-7.958;2023-05-11T08:43:46;97754.50;;;15.92;46.56
61035;BME280;46916;40.564;-7.958;2023-05-11T08:45:49;97757.03;;;16.02;46.70
61035;BME280;46916;40.564;-7.958;2023-05-11T08:47:53;97753.13;;;16.14;45.97
61035;BME280;46916;40.564;-7.958;2023-05-11T08:49:54;97756.94;;;16.20;45.78
61035;BME280;46916;40.564;-7.958;2023-05-11T08:51:55;97754.22;;;16.29;45.50
61035;BME280;46916;40.564;-7.958;2023-05-11T08:53:57;97752.69;;;16.27;45.58
61035;BME280;46916;40.564;-7.958;2023-05-11T08:56:00;97755.69;;;16.32;44.77
61035;BME280;46916;40.564;-7.958;2023-05-11T08:58:04;97759.19;;;16.41;44.88
61035;BME280;46916;40.564;-7.958;2023-05-11T09:00:08;97748.59;;;16.32;44.53
61035;BME280;46916;40.564;-7.958;2023-05-11T09:02:15;97744.66;;;16.45;44.73
61035;BME280;46916;40.564;-7.958;2023-05-11T09:04:16;97746.53;;;16.52;44.22
61035;BME280;46916;40.564;-7.958;2023-05-11T09:06:18;97752.97;;;16.50;44.51
61035;BME280;46916;40.564;-7.958;2023-05-11T09:08:21;97755.78;;;16.56;44.51
61035;BME280;46916;40.564;-7.958;2023-05-11T09:10:22;97759.47;;;16.64;43.62
61035;BME280;46916;40.564;-7.958;2023-05-11T09:12:23;97753.00;;;16.58;43.64
61035;BME280;46916;40.564;-7.958;2023-05-11T09:14:25;97754.13;;;16.55;43.48
61035;BME280;46916;40.564;-7.958;2023-05-11T09:16:26;97759.63;;;16.62;43.63
61035;BME280;46916;40.564;-7.958;2023-05-11T09:18:27;97748.41;;;16.68;43.58
61035;BME280;46916;40.564;-7.958;2023-05-11T09:20:30;97757.84;;;16.71;43.15
61035;BME280;46916;40.564;-7.958;2023-05-11T09:22:41;97759.81;;;16.69;43.22
61035;BME280;46916;40.564;-7.958;2023-05-11T09:24:42;97750.91;;;16.70;43.33
61035;BME280;46916;40.564;-7.958;2023-05-11T09:26:43;97757.22;;;16.77;43.50
61035;BME280;46916;40.564;-7.958;2023-05-11T09:28:52;97766.84;;;16.86;42.50
61035;BME280;46916;40.564;-7.958;2023-05-11T09:30:53;97755.63;;;16.92;42.47
61035;BME280;46916;40.564;-7.958;2023-05-11T09:32:58;97759.56;;;16.88;42.45
61035;BME280;46916;40.564;-7.958;2023-05-11T09:35:17;97749.97;;;16.87;42.51
61035;BME280;46916;40.564;-7.958;2023-05-11T09:37:18;97753.78;;;16.84;42.46
61035;BME280;46916;40.564;-7.958;2023-05-11T09:39:29;97748.34;;;16.94;42.53
61035;BME280;46916;40.564;-7.958;2023-05-11T09:41:31;97750.00;;;16.95;42.42
61035;BME280;46916;40.564;-7.958;2023-05-11T09:43:31;97749.69;;;16.98;42.68
61035;BME280;46916;40.564;-7.958;2023-05-11T09:45:34;97752.00;;;17.01;42.47
61035;BME280;46916;40.564;-7.958;2023-05-11T09:47:38;97745.03;;;16.92;43.17
61035;BME280;46916;40.564;-7.958;2023-05-11T09:49:41;97749.34;;;17.09;42.25
61035;BME280;46916;40.564;-7.958;2023-05-11T09:51:42;97746.38;;;17.04;42.51
61035;BME280;46916;40.564;-7.958;2023-05-11T09:53:43;97749.22;;;17.11;41.99
61035;BME280;46916;40.564;-7.958;2023-05-11T09:55:54;97747.88;;;17.07;42.71
61035;BME280;46916;40.564;-7.958;2023-05-11T09:57:57;97748.41;;;17.19;42.77
61035;BME280;46916;40.564;-7.958;2023-05-11T09:59:59;97745.59;;;17.28;42.27
61035;BME280;46916;40.564;-7.958;2023-05-11T10:02:27;97749.56;;;17.32;42.21
61035;BME280;46916;40.564;-7.958;2023-05-11T10:04:28;97757.00;;;17.37;41.24
61035;BME280;46916;40.564;-7.958;2023-05-11T10:06:47;97753.34;;;17.30;41.04
61035;BME280;46916;40.564;-7.958;2023-05-11T10:08:47;97738.13;;;17.24;41.05
61035;BME280;46916;40.564;-7.958;2023-05-11T10:10:48;97745.09;;;17.25;41.93
61035;BME280;46916;40.564;-7.958;2023-05-11T10:12:50;97747.56;;;17.34;42.10
61035;BME280;46916;40.564;-7.958;2023-05-11T10:14:59;97747.25;;;17.46;41.25
61035;BME280;46916;40.564;-7.958;2023-05-11T10:17:01;97751.72;;;17.45;41.26
61035;BME280;46916;40.564;-7.958;2023-05-11T10:19:02;97749.25;;;17.60;40.36
61035;BME280;46916;40.564;-7.958;2023-05-11T10:21:03;97749.88;;;17.70;39.41
61035;BME280;46916;40.564;-7.958;2023-05-11T10:23:04;97753.72;;;17.76;39.86
61035;BME280;46916;40.564;-7.958;2023-05-11T10:25:06;97741.47;;;17.75;40.15
61035;BME280;46916;40.564;-7.958;2023-05-11T10:27:10;97749.88;;;17.70;40.26
61035;BME280;46916;40.564;-7.958;2023-05-11T10:29:12;97737.31;;;17.72;39.75
61035;BME280;46916;40.564;-7.958;2023-05-11T10:31:13;97738.47;;;17.78;40.09
61035;BME280;46916;40.564;-7.958;2023-05-11T10:33:16;97730.34;;;17.79;40.15
61035;BME280;46916;40.564;-7.958;2023-05-11T10:35:17;97738.16;;;17.89;40.13
61035;BME280;46916;40.564;-7.958;2023-05-11T10:37:18;97739.13;;;18.04;38.90
61035;BME280;46916;40.564;-7.958;2023-05-11T10:39:20;97733.84;;;17.96;39.23
61035;BME280;46916;40.564;-7.958;2023-05-11T10:41:31;97729.19;;;17.90;40.11
61035;BME280;46916;40.564;-7.958;2023-05-11T10:43:48;97736.63;;;17.95;40.09
61035;BME280;46916;40.564;-7.958;2023-05-11T10:46:26;97740.09;;;18.03;39.61
61035;BME280;46916;40.564;-7.958;2023-05-11T11:03:13;97714.94;;;18.47;37.51
61035;BME280;46916;40.564;-7.958;2023-05-11T11:05:31;97713.94;;;18.48;37.32
61035;BME280;46916;40.564;-7.958;2023-05-11T11:07:55;97726.31;;;18.55;37.72